sensor_id;sensor_type;location;lat;lon;timestamp;P1;P2;P0
75946;PMS5003;64628;50.104;14.614;2024-01-07T00:02:01;82;62;
75946;PMS5003;64628;50.104;14.614;2024-01-07T00:04:26;65;61;
75946;PMS5003;64628;50.104;14.614;2024-01-07T00:06:51;68;53;
75946;PMS5003;64628;50.104;14.614;2024-01-07T00:09:17;85;59;
75946;PMS5003;64628;50.104;14.614;2024-01-07T00:11:43;69;53;
75946;PMS5003;64628;50.104;14.614;2024-01-07T00:14:08;71;56;
75946;PMS5003;64628;50.104;14.614;2024-01-07T00:16:34;75;57;
75946;PMS5003;64628;50.104;14.614;2024-01-07T00:18:59;68;50;
75946;PMS5003;64628;50.104;14.614;2024-01-07T00:21:25;61;50;
75946;PMS5003;64628;50.104;14.614;2024-01-07T00:23:50;61;57;
75946;PMS5003;64628;50.104;14.614;2024-01-07T00:26:16;56;43;
75946;PMS5003;64628;50.104;14.614;2024-01-07T00:28:41;73;52;
75946;PMS5003;64628;50.104;14.614;2024-01-07T00:31:07;63;50;
75946;PMS5003;64628;50.104;14.614;2024-01-07T00:33:33;77;61;
75946;PMS5003;64628;50.104;14.614;2024-01-07T00:35:58;71;49;
75946;PMS5003;64628;50.104;14.614;2024-01-07T00:38:24;62;53;
75946;PMS5003;64628;50.104;14.614;2024-01-07T00:40:49;71;60;
75946;PMS5003;64628;50.104;14.614;2024-01-07T00:43:16;77;56;
75946;PMS5003;64628;50.104;14.614;2024-01-07T00:45:40;80;53;
75946;PMS5003;64628;50.104;14.614;2024-01-07T00:48:06;74;59;
75946;PMS5003;64628;50.104;14.614;2024-01-07T00:50:31;75;51;
75946;PMS5003;64628;50.104;14.614;2024-01-07T00:52:57;63;51;
75946;PMS5003;64628;50.104;14.614;2024-01-07T00:55:22;66;49;
75946;PMS5003;64628;50.104;14.614;2024-01-07T00:57:46;63;52;
75946;PMS5003;64628;50.104;14.614;2024-01-07T01:00:12;68;49;
75946;PMS5003;64628;50.104;14.614;2024-01-07T01:02:37;55;46;
75946;PMS5003;64628;50.104;14.614;2024-01-07T01:05:03;76;55;
75946;PMS5003;64628;50.104;14.614;2024-01-07T01:07:29;59;50;
75946;PMS5003;64628;50.104;14.614;2024-01-07T01:09:54;65;49;
75946;PMS5003;64628;50.104;14.614;2024-01-07T01:12:19;62;45;
75946;PMS5003;64628;50.104;14.614;2024-01-07T01:14:44;66;49;
75946;PMS5003;64628;50.104;14.614;2024-01-07T01:17:12;60;49;
75946;PMS5003;64628;50.104;14.614;2024-01-07T01:19:36;59;52;
75946;PMS5003;64628;50.104;14.614;2024-01-07T01:22:02;55;41;
75946;PMS5003;64628;50.104;14.614;2024-01-07T01:24:27;52;39;
75946;PMS5003;64628;50.104;14.614;2024-01-07T01:26:52;62;42;
75946;PMS5003;64628;50.104;14.614;2024-01-07T01:29:18;52;47;
75946;PMS5003;64628;50.104;14.614;2024-01-07T01:31:43;68;58;
75946;PMS5003;64628;50.104;14.614;2024-01-07T01:34:09;62;48;
75946;PMS5003;64628;50.104;14.614;2024-01-07T01:36:34;59;48;
75946;PMS5003;64628;50.104;14.614;2024-01-07T01:39:00;61;44;
75946;PMS5003;64628;50.104;14.614;2024-01-07T01:41:25;56;45;
75946;PMS5003;64628;50.104;14.614;2024-01-07T01:43:50;61;45;
75946;PMS5003;64628;50.104;14.614;2024-01-07T01:46:15;57;42;
75946;PMS5003;64628;50.104;14.614;2024-01-07T01:48:40;58;47;
75946;PMS5003;64628;50.104;14.614;2024-01-07T01:51:06;64;48;
75946;PMS5003;64628;50.104;14.614;2024-01-07T01:53:31;61;47;
75946;PMS5003;64628;50.104;14.614;2024-01-07T01:55:57;52;45;
75946;PMS5003;64628;50.104;14.614;2024-01-07T01:58:23;54;45;
75946;PMS5003;64628;50.104;14.614;2024-01-07T02:00:49;57;35;
75946;PMS5003;64628;50.104;14.614;2024-01-07T02:03:14;67;55;
75946;PMS5003;64628;50.104;14.614;2024-01-07T02:05:39;60;48;
75946;PMS5003;64628;50.104;14.614;2024-01-07T02:08:04;52;47;
75946;PMS5003;64628;50.104;14.614;2024-01-07T02:10:30;45;40;
75946;PMS5003;64628;50.104;14.614;2024-01-07T02:12:55;58;45;
75946;PMS5003;64628;50.104;14.614;2024-01-07T02:15:21;60;50;
75946;PMS5003;64628;50.104;14.614;2024-01-07T02:17:46;52;38;
75946;PMS5003;64628;50.104;14.614;2024-01-07T02:20:12;57;47;
75946;PMS5003;64628;50.104;14.614;2024-01-07T02:22:38;50;42;
75946;PMS5003;64628;50.104;14.614;2024-01-07T02:25:03;65;52;
75946;PMS5003;64628;50.104;14.614;2024-01-07T02:27:29;62;49;
75946;PMS5003;64628;50.104;14.614;2024-01-07T02:29:54;66;49;
75946;PMS5003;64628;50.104;14.614;2024-01-07T02:32:20;65;50;
75946;PMS5003;64628;50.104;14.614;2024-01-07T02:34:45;51;42;
75946;PMS5003;64628;50.104;14.614;2024-01-07T02:37:11;61;44;
75946;PMS5003;64628;50.104;14.614;2024-01-07T02:39:35;58;44;
75946;PMS5003;64628;50.104;14.614;2024-01-07T02:42:01;57;41;
75946;PMS5003;64628;50.104;14.614;2024-01-07T02:44:25;40;40;
75946;PMS5003;64628;50.104;14.614;2024-01-07T02:46:51;60;42;
75946;PMS5003;64628;50.104;14.614;2024-01-07T02:49:19;55;44;
75946;PMS5003;64628;50.104;14.614;2024-01-07T02:51:48;58;44;
75946;PMS5003;64628;50.104;14.614;2024-01-07T02:54:07;54;45;
75946;PMS5003;64628;50.104;14.614;2024-01-07T02:58:57;64;44;
75946;PMS5003;64628;50.104;14.614;2024-01-07T03:01:23;51;44;
75946;PMS5003;64628;50.104;14.614;2024-01-07T03:03:48;61;48;
75946;PMS5003;64628;50.104;14.614;2024-01-07T03:06:13;54;45;
75946;PMS5003;64628;50.104;14.614;2024-01-07T03:08:38;42;40;
75946;PMS5003;64628;50.104;14.614;2024-01-07T03:11:04;67;48;
75946;PMS5003;64628;50.104;14.614;2024-01-07T03:13:35;42;40;
75946;PMS5003;64628;50.104;14.614;2024-01-07T03:15:54;54;44;
75946;PMS5003;64628;50.104;14.614;2024-01-07T03:18:20;47;37;
75946;PMS5003;64628;50.104;14.614;2024-01-07T03:20:45;51;38;
75946;PMS5003;64628;50.104;14.614;2024-01-07T03:23:11;54;43;
75946;PMS5003;64628;50.104;14.614;2024-01-07T03:25:37;54;41;
75946;PMS5003;64628;50.104;14.614;2024-01-07T03:28:04;52;48;
75946;PMS5003;64628;50.104;14.614;2024-01-07T03:30:28;64;47;
75946;PMS5003;64628;50.104;14.614;2024-01-07T03:32:54;57;45;
75946;PMS5003;64628;50.104;14.614;2024-01-07T03:35:19;61;48;
75946;PMS5003;64628;50.104;14.614;2024-01-07T03:37:45;54;40;
75946;PMS5003;64628;50.104;14.614;2024-01-07T03:40:10;63;47;
75946;PMS5003;64628;50.104;14.614;2024-01-07T03:42:41;50;40;
75946;PMS5003;64628;50.104;14.614;2024-01-07T03:45:03;56;43;
75946;PMS5003;64628;50.104;14.614;2024-01-07T03:49:52;58;44;
75946;PMS5003;64628;50.104;14.614;2024-01-07T03:52:18;57;44;
75946;PMS5003;64628;50.104;14.614;2024-01-07T03:54:43;52;41;
75946;PMS5003;64628;50.104;14.614;2024-01-07T03:57:14;50;36;
75946;PMS5003;64628;50.104;14.614;2024-01-07T03:59:34;46;36;
75946;PMS5003;64628;50.104;14.614;2024-01-07T04:02:00;55;44;
75946;PMS5003;64628;50.104;14.614;2024-01-07T04:04:26;43;39;
75946;PMS5003;64628;50.104;14.614;2024-01-07T04:06:51;54;40;
75946;PMS5003;64628;50.104;14.614;2024-01-07T04:09:17;43;36;
75946;PMS5003;64628;50.104;14.614;2024-01-07T04:11:42;56;43;
75946;PMS5003;64628;50.104;14.614;2024-01-07T04:14:07;60;49;
75946;PMS5003;64628;50.104;14.614;2024-01-07T04:16:33;42;33;
75946;PMS5003;64628;50.104;14.614;2024-01-07T04:18:59;44;35;
75946;PMS5003;64628;50.104;14.614;2024-01-07T04:21:25;42;36;
75946;PMS5003;64628;50.104;14.614;2024-01-07T04:23:50;51;40;
75946;PMS5003;64628;50.104;14.614;2024-01-07T04:26:16;45;40;
75946;PMS5003;64628;50.104;14.614;2024-01-07T04:28:42;45;36;
75946;PMS5003;64628;50.104;14.614;2024-01-07T04:31:07;58;49;
75946;PMS5003;64628;50.104;14.614;2024-01-07T04:33:32;52;45;
75946;PMS5003;64628;50.104;14.614;2024-01-07T04:35:57;58;40;
75946;PMS5003;64628;50.104;14.614;2024-01-07T04:38:23;48;42;
75946;PMS5003;64628;50.104;14.614;2024-01-07T04:40:48;50;39;
75946;PMS5003;64628;50.104;14.614;2024-01-07T04:43:14;55;41;
75946;PMS5003;64628;50.104;14.614;2024-01-07T04:45:40;52;43;
75946;PMS5003;64628;50.104;14.614;2024-01-07T04:48:04;49;39;
75946;PMS5003;64628;50.104;14.614;2024-01-07T04:50:29;61;41;
75946;PMS5003;64628;50.104;14.614;2024-01-07T04:52:55;51;37;
75946;PMS5003;64628;50.104;14.614;2024-01-07T04:55:21;50;39;
75946;PMS5003;64628;50.104;14.614;2024-01-07T04:57:45;46;39;
75946;PMS5003;64628;50.104;14.614;2024-01-07T05:00:11;52;42;
75946;PMS5003;64628;50.104;14.614;2024-01-07T05:02:36;49;37;
75946;PMS5003;64628;50.104;14.614;2024-01-07T05:05:02;51;42;
75946;PMS5003;64628;50.104;14.614;2024-01-07T05:07:27;55;39;
75946;PMS5003;64628;50.104;14.614;2024-01-07T05:09:53;57;45;
75946;PMS5003;64628;50.104;14.614;2024-01-07T05:12:18;51;46;
75946;PMS5003;64628;50.104;14.614;2024-01-07T05:14:48;51;41;
75946;PMS5003;64628;50.104;14.614;2024-01-07T05:17:09;55;42;
75946;PMS5003;64628;50.104;14.614;2024-01-07T05:19:34;57;48;
75946;PMS5003;64628;50.104;14.614;2024-01-07T05:21:59;58;38;
75946;PMS5003;64628;50.104;14.614;2024-01-07T05:24:30;46;41;
75946;PMS5003;64628;50.104;14.614;2024-01-07T05:26:49;49;40;
75946;PMS5003;64628;50.104;14.614;2024-01-07T05:29:15;42;41;
75946;PMS5003;64628;50.104;14.614;2024-01-07T05:31:41;61;49;
75946;PMS5003;64628;50.104;14.614;2024-01-07T05:34:06;56;37;
75946;PMS5003;64628;50.104;14.614;2024-01-07T05:36:37;42;35;
75946;PMS5003;64628;50.104;14.614;2024-01-07T05:38:58;64;46;
75946;PMS5003;64628;50.104;14.614;2024-01-07T05:41:23;48;36;
75946;PMS5003;64628;50.104;14.614;2024-01-07T05:43:50;56;43;
75946;PMS5003;64628;50.104;14.614;2024-01-07T05:46:14;46;41;
75946;PMS5003;64628;50.104;14.614;2024-01-07T05:48:43;42;36;
75946;PMS5003;64628;50.104;14.614;2024-01-07T05:51:10;55;46;
75946;PMS5003;64628;50.104;14.614;2024-01-07T05:53:30;52;42;
75946;PMS5003;64628;50.104;14.614;2024-01-07T05:55:56;57;48;
75946;PMS5003;64628;50.104;14.614;2024-01-07T05:58:27;53;44;
75946;PMS5003;64628;50.104;14.614;2024-01-07T06:00:46;55;43;
75946;PMS5003;64628;50.104;14.614;2024-01-07T06:03:12;61;43;
75946;PMS5003;64628;50.104;14.614;2024-01-07T06:05:42;60;46;
75946;PMS5003;64628;50.104;14.614;2024-01-07T06:08:04;55;42;
75946;PMS5003;64628;50.104;14.614;2024-01-07T06:10:28;54;48;
75946;PMS5003;64628;50.104;14.614;2024-01-07T06:12:55;60;46;
75946;PMS5003;64628;50.104;14.614;2024-01-07T06:15:19;46;42;
75946;PMS5003;64628;50.104;14.614;2024-01-07T06:17:44;60;49;
75946;PMS5003;64628;50.104;14.614;2024-01-07T06:20:11;54;45;
75946;PMS5003;64628;50.104;14.614;2024-01-07T06:22:37;58;42;
75946;PMS5003;64628;50.104;14.614;2024-01-07T06:25:02;58;45;
75946;PMS5003;64628;50.104;14.614;2024-01-07T06:27:27;64;49;
75946;PMS5003;64628;50.104;14.614;2024-01-07T06:29:53;55;39;
75946;PMS5003;64628;50.104;14.614;2024-01-07T06:32:18;52;39;
75946;PMS5003;64628;50.104;14.614;2024-01-07T06:34:44;64;42;
75946;PMS5003;64628;50.104;14.614;2024-01-07T06:37:09;73;51;
75946;PMS5003;64628;50.104;14.614;2024-01-07T06:39:35;64;48;
75946;PMS5003;64628;50.104;14.614;2024-01-07T06:42:05;63;50;
75946;PMS5003;64628;50.104;14.614;2024-01-07T06:44:26;61;47;
75946;PMS5003;64628;50.104;14.614;2024-01-07T06:46:54;48;41;
75946;PMS5003;64628;50.104;14.614;2024-01-07T06:49:18;67;53;
75946;PMS5003;64628;50.104;14.614;2024-01-07T06:51:42;60;48;
75946;PMS5003;64628;50.104;14.614;2024-01-07T06:54:09;67;51;
75946;PMS5003;64628;50.104;14.614;2024-01-07T06:56:34;63;48;
75946;PMS5003;64628;50.104;14.614;2024-01-07T06:59:09;63;47;
75946;PMS5003;64628;50.104;14.614;2024-01-07T07:01:25;69;54;
75946;PMS5003;64628;50.104;14.614;2024-01-07T07:03:56;56;48;
75946;PMS5003;64628;50.104;14.614;2024-01-07T07:06:15;62;48;
75946;PMS5003;64628;50.104;14.614;2024-01-07T07:08:45;47;41;
75946;PMS5003;64628;50.104;14.614;2024-01-07T07:11:06;56;52;
75946;PMS5003;64628;50.104;14.614;2024-01-07T07:13:31;59;47;
75946;PMS5003;64628;50.104;14.614;2024-01-07T07:15:56;48;42;
75946;PMS5003;64628;50.104;14.614;2024-01-07T07:18:22;62;47;
75946;PMS5003;64628;50.104;14.614;2024-01-07T07:20:52;75;51;
75946;PMS5003;64628;50.104;14.614;2024-01-07T07:23:13;53;47;
75946;PMS5003;64628;50.104;14.614;2024-01-07T07:25:43;60;50;
75946;PMS5003;64628;50.104;14.614;2024-01-07T07:28:09;65;56;
75946;PMS5003;64628;50.104;14.614;2024-01-07T07:30:30;53;44;
75946;PMS5003;64628;50.104;14.614;2024-01-07T07:32:55;60;51;
75946;PMS5003;64628;50.104;14.614;2024-01-07T07:35:20;67;50;
75946;PMS5003;64628;50.104;14.614;2024-01-07T07:37:46;54;50;
75946;PMS5003;64628;50.104;14.614;2024-01-07T07:40:11;54;45;
75946;PMS5003;64628;50.104;14.614;2024-01-07T07:42:37;54;41;
75946;PMS5003;64628;50.104;14.614;2024-01-07T07:47:28;51;44;
75946;PMS5003;64628;50.104;14.614;2024-01-07T07:49:53;48;41;
75946;PMS5003;64628;50.104;14.614;2024-01-07T07:57:08;57;50;
75946;PMS5003;64628;50.104;14.614;2024-01-07T07:59:48;69;60;
75946;PMS5003;64628;50.104;14.614;2024-01-07T08:02:09;44;40;
75946;PMS5003;64628;50.104;14.614;2024-01-07T08:06:52;51;39;
75946;PMS5003;64628;50.104;14.614;2024-01-07T08:09:17;104;98;
75946;PMS5003;64628;50.104;14.614;2024-01-07T08:11:47;96;90;
75946;PMS5003;64628;50.104;14.614;2024-01-07T08:14:13;63;56;
75946;PMS5003;64628;50.104;14.614;2024-01-07T08:16:32;56;44;
75946;PMS5003;64628;50.104;14.614;2024-01-07T08:19:00;53;44;
75946;PMS5003;64628;50.104;14.614;2024-01-07T08:21:26;50;42;
75946;PMS5003;64628;50.104;14.614;2024-01-07T08:23:49;41;36;
75946;PMS5003;64628;50.104;14.614;2024-01-07T08:33:33;36;32;
75946;PMS5003;64628;50.104;14.614;2024-01-07T08:36:07;52;39;
75946;PMS5003;64628;50.104;14.614;2024-01-07T08:43:14;44;35;
75946;PMS5003;64628;50.104;14.614;2024-01-07T08:48:11;51;41;
75946;PMS5003;64628;50.104;14.614;2024-01-07T08:50:35;45;32;
75946;PMS5003;64628;50.104;14.614;2024-01-07T08:52:54;56;44;
75946;PMS5003;64628;50.104;14.614;2024-01-07T08:55:19;46;39;
75946;PMS5003;64628;50.104;14.614;2024-01-07T08:57:45;43;41;
75946;PMS5003;64628;50.104;14.614;2024-01-07T09:05:02;54;39;
75946;PMS5003;64628;50.104;14.614;2024-01-07T09:07:29;44;38;
75946;PMS5003;64628;50.104;14.614;2024-01-07T09:12:19;63;49;
75946;PMS5003;64628;50.104;14.614;2024-01-07T09:24:27;41;32;
75946;PMS5003;64628;50.104;14.614;2024-01-07T09:26:52;51;36;
75946;PMS5003;64628;50.104;14.614;2024-01-07T09:29:18;58;48;
75946;PMS5003;64628;50.104;14.614;2024-01-07T09:31:43;49;40;
75946;PMS5003;64628;50.104;14.614;2024-01-07T09:34:08;39;30;
75946;PMS5003;64628;50.104;14.614;2024-01-07T09:36:34;39;30;
75946;PMS5003;64628;50.104;14.614;2024-01-07T09:39:04;45;42;
75946;PMS5003;64628;50.104;14.614;2024-01-07T09:41:25;52;39;
75946;PMS5003;64628;50.104;14.614;2024-01-07T09:43:51;35;27;
75946;PMS5003;64628;50.104;14.614;2024-01-07T09:46:17;35;29;
75946;PMS5003;64628;50.104;14.614;2024-01-07T09:48:43;46;41;
75946;PMS5003;64628;50.104;14.614;2024-01-07T09:51:09;41;36;
75946;PMS5003;64628;50.104;14.614;2024-01-07T09:53:33;48;39;
75946;PMS5003;64628;50.104;14.614;2024-01-07T09:58:34;46;39;
75946;PMS5003;64628;50.104;14.614;2024-01-07T10:00:55;54;38;
75946;PMS5003;64628;50.104;14.614;2024-01-07T10:05:41;38;33;
75946;PMS5003;64628;50.104;14.614;2024-01-07T10:10:33;50;41;
75946;PMS5003;64628;50.104;14.614;2024-01-07T10:13:03;51;36;
75946;PMS5003;64628;50.104;14.614;2024-01-07T10:17:51;45;33;
75946;PMS5003;64628;50.104;14.614;2024-01-07T10:20:12;51;39;
75946;PMS5003;64628;50.104;14.614;2024-01-07T10:22:47;43;34;
75946;PMS5003;64628;50.104;14.614;2024-01-07T10:25:03;38;35;
75946;PMS5003;64628;50.104;14.614;2024-01-07T10:29:54;41;36;
75946;PMS5003;64628;50.104;14.614;2024-01-07T10:32:19;36;32;
75946;PMS5003;64628;50.104;14.614;2024-01-07T10:34:49;45;35;
75946;PMS5003;64628;50.104;14.614;2024-01-07T10:37:09;42;39;
75946;PMS5003;64628;50.104;14.614;2024-01-07T10:39:35;45;36;
75946;PMS5003;64628;50.104;14.614;2024-01-07T10:42:01;41;32;
75946;PMS5003;64628;50.104;14.614;2024-01-07T10:44:32;41;32;
75946;PMS5003;64628;50.104;14.614;2024-01-07T10:46:57;48;32;
75946;PMS5003;64628;50.104;14.614;2024-01-07T10:49:24;42;35;
75946;PMS5003;64628;50.104;14.614;2024-01-07T10:51:43;47;41;
75946;PMS5003;64628;50.104;14.614;2024-01-07T10:56:42;38;33;
75946;PMS5003;64628;50.104;14.614;2024-01-07T11:01:24;35;29;
75946;PMS5003;64628;50.104;14.614;2024-01-07T11:03:54;39;38;
75946;PMS5003;64628;50.104;14.614;2024-01-07T11:06:22;33;27;
75946;PMS5003;64628;50.104;14.614;2024-01-07T11:08:43;49;36;
75946;PMS5003;64628;50.104;14.614;2024-01-07T11:11:07;56;39;
75946;PMS5003;64628;50.104;14.614;2024-01-07T11:16:02;47;36;
75946;PMS5003;64628;50.104;14.614;2024-01-07T11:18:27;42;36;
75946;PMS5003;64628;50.104;14.614;2024-01-07T11:20:49;46;31;
75946;PMS5003;64628;50.104;14.614;2024-01-07T11:25:40;44;34;
75946;PMS5003;64628;50.104;14.614;2024-01-07T11:28:04;37;33;
75946;PMS5003;64628;50.104;14.614;2024-01-07T11:30:29;36;34;
75946;PMS5003;64628;50.104;14.614;2024-01-07T11:33:00;37;36;
75946;PMS5003;64628;50.104;14.614;2024-01-07T11:35:23;38;31;
75946;PMS5003;64628;50.104;14.614;2024-01-07T11:37:50;35;30;
75946;PMS5003;64628;50.104;14.614;2024-01-07T11:47:37;45;38;
75946;PMS5003;64628;50.104;14.614;2024-01-07T11:54:42;46;37;
75946;PMS5003;64628;50.104;14.614;2024-01-07T11:57:08;42;38;
75946;PMS5003;64628;50.104;14.614;2024-01-07T11:59:37;56;43;
75946;PMS5003;64628;50.104;14.614;2024-01-07T12:01:59;43;38;
75946;PMS5003;64628;50.104;14.614;2024-01-07T12:04:24;53;44;
75946;PMS5003;64628;50.104;14.614;2024-01-07T12:06:49;41;37;
75946;PMS5003;64628;50.104;14.614;2024-01-07T12:09:15;40;32;
75946;PMS5003;64628;50.104;14.614;2024-01-07T12:11:41;48;35;
75946;PMS5003;64628;50.104;14.614;2024-01-07T12:14:05;49;38;
75946;PMS5003;64628;50.104;14.614;2024-01-07T12:16:30;50;38;
75946;PMS5003;64628;50.104;14.614;2024-01-07T12:18:56;42;35;
75946;PMS5003;64628;50.104;14.614;2024-01-07T12:21:21;44;40;
75946;PMS5003;64628;50.104;14.614;2024-01-07T12:23:48;38;34;
75946;PMS5003;64628;50.104;14.614;2024-01-07T12:26:18;47;35;
75946;PMS5003;64628;50.104;14.614;2024-01-07T12:28:38;41;34;
75946;PMS5003;64628;50.104;14.614;2024-01-07T12:31:04;45;34;
75946;PMS5003;64628;50.104;14.614;2024-01-07T12:33:36;37;32;
75946;PMS5003;64628;50.104;14.614;2024-01-07T12:35:55;48;38;
75946;PMS5003;64628;50.104;14.614;2024-01-07T12:38:23;48;37;
75946;PMS5003;64628;50.104;14.614;2024-01-07T12:40:46;44;32;
75946;PMS5003;64628;50.104;14.614;2024-01-07T12:43:11;50;38;
75946;PMS5003;64628;50.104;14.614;2024-01-07T12:45:36;37;30;
75946;PMS5003;64628;50.104;14.614;2024-01-07T12:48:02;51;42;
75946;PMS5003;64628;50.104;14.614;2024-01-07T12:50:27;50;41;
75946;PMS5003;64628;50.104;14.614;2024-01-07T12:52:53;46;39;
75946;PMS5003;64628;50.104;14.614;2024-01-07T12:55:18;43;40;
75946;PMS5003;64628;50.104;14.614;2024-01-07T12:57:43;37;30;
75946;PMS5003;64628;50.104;14.614;2024-01-07T13:00:09;37;25;
75946;PMS5003;64628;50.104;14.614;2024-01-07T13:02:34;35;30;
75946;PMS5003;64628;50.104;14.614;2024-01-07T13:04:59;35;27;
75946;PMS5003;64628;50.104;14.614;2024-01-07T13:07:24;35;30;
75946;PMS5003;64628;50.104;14.614;2024-01-07T13:09:50;34;27;
75946;PMS5003;64628;50.104;14.614;2024-01-07T13:12:16;36;28;
75946;PMS5003;64628;50.104;14.614;2024-01-07T13:14:41;24;23;
75946;PMS5003;64628;50.104;14.614;2024-01-07T13:17:06;27;20;
75946;PMS5003;64628;50.104;14.614;2024-01-07T13:19:32;21;18;
75946;PMS5003;64628;50.104;14.614;2024-01-07T13:21:57;26;20;
75946;PMS5003;64628;50.104;14.614;2024-01-07T13:24:23;23;17;
75946;PMS5003;64628;50.104;14.614;2024-01-07T13:26:48;17;16;
75946;PMS5003;64628;50.104;14.614;2024-01-07T13:29:14;21;20;
75946;PMS5003;64628;50.104;14.614;2024-01-07T13:31:39;30;23;
75946;PMS5003;64628;50.104;14.614;2024-01-07T13:34:05;33;21;
75946;PMS5003;64628;50.104;14.614;2024-01-07T13:36:31;20;18;
75946;PMS5003;64628;50.104;14.614;2024-01-07T13:38:56;16;16;
75946;PMS5003;64628;50.104;14.614;2024-01-07T13:41:21;25;22;
75946;PMS5003;64628;50.104;14.614;2024-01-07T13:43:47;14;13;
75946;PMS5003;64628;50.104;14.614;2024-01-07T13:46:12;26;20;
75946;PMS5003;64628;50.104;14.614;2024-01-07T13:48:38;29;25;
75946;PMS5003;64628;50.104;14.614;2024-01-07T13:51:04;19;16;
75946;PMS5003;64628;50.104;14.614;2024-01-07T13:53:29;20;20;
75946;PMS5003;64628;50.104;14.614;2024-01-07T13:55:55;26;22;
75946;PMS5003;64628;50.104;14.614;2024-01-07T13:58:20;26;23;
75946;PMS5003;64628;50.104;14.614;2024-01-07T14:00:46;22;19;
75946;PMS5003;64628;50.104;14.614;2024-01-07T14:03:11;27;20;
75946;PMS5003;64628;50.104;14.614;2024-01-07T14:05:37;20;17;
75946;PMS5003;64628;50.104;14.614;2024-01-07T14:08:03;22;19;
75946;PMS5003;64628;50.104;14.614;2024-01-07T14:10:28;26;25;
75946;PMS5003;64628;50.104;14.614;2024-01-07T14:12:54;32;28;
75946;PMS5003;64628;50.104;14.614;2024-01-07T14:15:19;34;31;
75946;PMS5003;64628;50.104;14.614;2024-01-07T14:17:44;11;10;
75946;PMS5003;64628;50.104;14.614;2024-01-07T14:20:09;13;10;
75946;PMS5003;64628;50.104;14.614;2024-01-07T14:22:35;28;19;
75946;PMS5003;64628;50.104;14.614;2024-01-07T14:25:01;21;19;
75946;PMS5003;64628;50.104;14.614;2024-01-07T14:27:26;31;29;
75946;PMS5003;64628;50.104;14.614;2024-01-07T14:29:51;34;23;
75946;PMS5003;64628;50.104;14.614;2024-01-07T14:32:23;19;17;
75946;PMS5003;64628;50.104;14.614;2024-01-07T14:34:43;37;35;
75946;PMS5003;64628;50.104;14.614;2024-01-07T14:37:08;20;19;
75946;PMS5003;64628;50.104;14.614;2024-01-07T14:42:00;21;19;
75946;PMS5003;64628;50.104;14.614;2024-01-07T14:44:30;27;18;
75946;PMS5003;64628;50.104;14.614;2024-01-07T14:46:51;19;15;
75946;PMS5003;64628;50.104;14.614;2024-01-07T14:49:26;16;15;
75946;PMS5003;64628;50.104;14.614;2024-01-07T14:51:41;19;16;
75946;PMS5003;64628;50.104;14.614;2024-01-07T14:54:07;19;16;
75946;PMS5003;64628;50.104;14.614;2024-01-07T14:56:33;25;25;
75946;PMS5003;64628;50.104;14.614;2024-01-07T14:58:58;25;19;
75946;PMS5003;64628;50.104;14.614;2024-01-07T15:01:24;24;22;
75946;PMS5003;64628;50.104;14.614;2024-01-07T15:03:49;19;16;
75946;PMS5003;64628;50.104;14.614;2024-01-07T15:06:15;19;18;
75946;PMS5003;64628;50.104;14.614;2024-01-07T15:08:42;19;15;
75946;PMS5003;64628;50.104;14.614;2024-01-07T15:11:11;15;15;
75946;PMS5003;64628;50.104;14.614;2024-01-07T15:13:36;21;15;
75946;PMS5003;64628;50.104;14.614;2024-01-07T15:15:56;19;15;
75946;PMS5003;64628;50.104;14.614;2024-01-07T15:18:21;21;19;
75946;PMS5003;64628;50.104;14.614;2024-01-07T15:23:17;19;13;
75946;PMS5003;64628;50.104;14.614;2024-01-07T15:25:38;21;15;
75946;PMS5003;64628;50.104;14.614;2024-01-07T15:30:28;21;16;
75946;PMS5003;64628;50.104;14.614;2024-01-07T15:32:54;12;12;
75946;PMS5003;64628;50.104;14.614;2024-01-07T15:35:21;18;16;
75946;PMS5003;64628;50.104;14.614;2024-01-07T15:37:50;25;18;
75946;PMS5003;64628;50.104;14.614;2024-01-07T15:40:15;28;21;
75946;PMS5003;64628;50.104;14.614;2024-01-07T15:42:35;31;27;
75946;PMS5003;64628;50.104;14.614;2024-01-07T15:45:02;40;24;
75946;PMS5003;64628;50.104;14.614;2024-01-07T15:47:31;31;25;
75946;PMS5003;64628;50.104;14.614;2024-01-07T15:49:57;28;19;
75946;PMS5003;64628;50.104;14.614;2024-01-07T15:57:13;25;19;
75946;PMS5003;64628;50.104;14.614;2024-01-07T15:59:33;30;22;
75946;PMS5003;64628;50.104;14.614;2024-01-07T16:01:59;25;18;
75946;PMS5003;64628;50.104;14.614;2024-01-07T16:04:26;33;22;
75946;PMS5003;64628;50.104;14.614;2024-01-07T16:06:49;25;22;
75946;PMS5003;64628;50.104;14.614;2024-01-07T16:09:14;30;25;
75946;PMS5003;64628;50.104;14.614;2024-01-07T16:11:40;31;25;
75946;PMS5003;64628;50.104;14.614;2024-01-07T16:14:05;36;34;
75946;PMS5003;64628;50.104;14.614;2024-01-07T16:16:31;25;22;
75946;PMS5003;64628;50.104;14.614;2024-01-07T16:21:21;36;25;
75946;PMS5003;64628;50.104;14.614;2024-01-07T16:23:57;30;21;
75946;PMS5003;64628;50.104;14.614;2024-01-07T16:28:39;34;24;
75946;PMS5003;64628;50.104;14.614;2024-01-07T16:31:03;34;31;
75946;PMS5003;64628;50.104;14.614;2024-01-07T16:33:34;28;22;
75946;PMS5003;64628;50.104;14.614;2024-01-07T16:35:54;30;25;
75946;PMS5003;64628;50.104;14.614;2024-01-07T16:38:20;27;22;
75946;PMS5003;64628;50.104;14.614;2024-01-07T16:40:49;24;19;
75946;PMS5003;64628;50.104;14.614;2024-01-07T16:43:11;22;16;
75946;PMS5003;64628;50.104;14.614;2024-01-07T16:48:05;33;27;
75946;PMS5003;64628;50.104;14.614;2024-01-07T16:50:26;24;21;
75946;PMS5003;64628;50.104;14.614;2024-01-07T16:52:53;27;24;
75946;PMS5003;64628;50.104;14.614;2024-01-07T16:55:16;27;21;
75946;PMS5003;64628;50.104;14.614;2024-01-07T16:57:42;33;24;
75946;PMS5003;64628;50.104;14.614;2024-01-07T17:00:08;31;24;
75946;PMS5003;64628;50.104;14.614;2024-01-07T17:02:33;31;30;
75946;PMS5003;64628;50.104;14.614;2024-01-07T17:04:58;27;21;
75946;PMS5003;64628;50.104;14.614;2024-01-07T17:07:24;48;30;
75946;PMS5003;64628;50.104;14.614;2024-01-07T17:09:49;25;18;
75946;PMS5003;64628;50.104;14.614;2024-01-07T17:12:14;24;24;
75946;PMS5003;64628;50.104;14.614;2024-01-07T17:14:40;43;30;
75946;PMS5003;64628;50.104;14.614;2024-01-07T17:17:05;34;28;
75946;PMS5003;64628;50.104;14.614;2024-01-07T17:19:31;39;34;
75946;PMS5003;64628;50.104;14.614;2024-01-07T17:21:56;40;34;
75946;PMS5003;64628;50.104;14.614;2024-01-07T17:24:21;39;30;
75946;PMS5003;64628;50.104;14.614;2024-01-07T17:26:47;34;25;
75946;PMS5003;64628;50.104;14.614;2024-01-07T17:29:13;36;25;